sensor_id;sensor_type;location;lat;lon;timestamp;P1;durP1;ratioP1;P2;durP2;ratioP2
11531;SDS011;5822;51.000;5.874;2023-06-22T00:00:51;15.00;;;14.30;;
11531;SDS011;5822;51.000;5.874;2023-06-22T00:03:18;14.80;;;14.10;;
11531;SDS011;5822;51.000;5.874;2023-06-22T00:05:44;15.00;;;14.20;;
11531;SDS011;5822;51.000;5.874;2023-06-22T00:08:14;15.13;;;14.40;;
11531;SDS011;5822;51.000;5.874;2023-06-22T00:10:40;15.00;;;14.20;;
11531;SDS011;5822;51.000;5.874;2023-06-22T00:13:07;15.00;;;14.30;;
11531;SDS011;5822;51.000;5.874;2023-06-22T00:15:33;15.35;;;14.55;;
11531;SDS011;5822;51.000;5.874;2023-06-22T00:18:00;15.13;;;14.32;;
11531;SDS011;5822;51.000;5.874;2023-06-22T00:20:26;15.10;;;14.32;;
11531;SDS011;5822;51.000;5.874;2023-06-22T00:22:55;15.20;;;14.40;;
11531;SDS011;5822;51.000;5.874;2023-06-22T00:25:21;15.13;;;14.40;;
11531;SDS011;5822;51.000;5.874;2023-06-22T00:27:47;15.32;;;14.52;;
11531;SDS011;5822;51.000;5.874;2023-06-22T00:30:13;15.23;;;14.43;;
11531;SDS011;5822;51.000;5.874;2023-06-22T00:32:40;14.73;;;14.02;;
11531;SDS011;5822;51.000;5.874;2023-06-22T00:35:06;15.18;;;14.38;;
11531;SDS011;5822;51.000;5.874;2023-06-22T00:37:32;14.70;;;14.00;;
11531;SDS011;5822;51.000;5.874;2023-06-22T00:39:58;15.07;;;14.27;;
11531;SDS011;5822;51.000;5.874;2023-06-22T00:42:24;14.87;;;14.10;;
11531;SDS011;5822;51.000;5.874;2023-06-22T00:44:49;14.82;;;14.02;;
11531;SDS011;5822;51.000;5.874;2023-06-22T00:47:16;15.20;;;14.40;;
11531;SDS011;5822;51.000;5.874;2023-06-22T00:49:43;15.00;;;14.20;;
11531;SDS011;5822;51.000;5.874;2023-06-22T00:52:10;15.05;;;14.25;;
11531;SDS011;5822;51.000;5.874;2023-06-22T00:54:39;15.20;;;14.40;;
11531;SDS011;5822;51.000;5.874;2023-06-22T00:57:13;15.38;;;14.57;;
11531;SDS011;5822;51.000;5.874;2023-06-22T00:59:42;14.85;;;14.15;;
11531;SDS011;5822;51.000;5.874;2023-06-22T01:02:09;14.95;;;14.20;;
11531;SDS011;5822;51.000;5.874;2023-06-22T01:04:35;15.30;;;14.50;;
11531;SDS011;5822;51.000;5.874;2023-06-22T01:09:57;14.80;;;14.10;;
11531;SDS011;5822;51.000;5.874;2023-06-22T01:12:40;14.63;;;13.93;;
11531;SDS011;5822;51.000;5.874;2023-06-22T01:15:11;15.18;;;14.38;;
11531;SDS011;5822;51.000;5.874;2023-06-22T01:17:43;14.80;;;14.10;;
11531;SDS011;5822;51.000;5.874;2023-06-22T01:20:10;14.70;;;14.00;;
11531;SDS011;5822;51.000;5.874;2023-06-22T01:22:55;14.63;;;13.93;;
11531;SDS011;5822;51.000;5.874;2023-06-22T01:25:28;14.98;;;14.27;;
11531;SDS011;5822;51.000;5.874;2023-06-22T01:30:46;15.60;;;14.80;;
11531;SDS011;5822;51.000;5.874;2023-06-22T01:33:13;15.30;;;14.50;;
11531;SDS011;5822;51.000;5.874;2023-06-22T01:35:40;15.18;;;14.48;;
11531;SDS011;5822;51.000;5.874;2023-06-22T01:38:06;15.40;;;14.60;;
11531;SDS011;5822;51.000;5.874;2023-06-22T01:40:34;15.05;;;14.35;;
11531;SDS011;5822;51.000;5.874;2023-06-22T01:43:01;15.48;;;14.68;;
11531;SDS011;5822;51.000;5.874;2023-06-22T01:45:28;15.65;;;14.85;;
11531;SDS011;5822;51.000;5.874;2023-06-22T01:47:54;15.83;;;15.03;;
11531;SDS011;5822;51.000;5.874;2023-06-22T01:50:20;15.38;;;14.57;;
11531;SDS011;5822;51.000;5.874;2023-06-22T01:52:46;15.43;;;14.63;;
11531;SDS011;5822;51.000;5.874;2023-06-22T01:55:12;15.63;;;14.83;;
11531;SDS011;5822;51.000;5.874;2023-06-22T01:57:38;15.68;;;14.88;;
11531;SDS011;5822;51.000;5.874;2023-06-22T02:00:04;15.75;;;14.95;;
11531;SDS011;5822;51.000;5.874;2023-06-22T02:02:56;16.10;;;15.30;;
11531;SDS011;5822;51.000;5.874;2023-06-22T02:05:24;15.60;;;14.80;;
11531;SDS011;5822;51.000;5.874;2023-06-22T02:10:34;15.98;;;15.18;;
11531;SDS011;5822;51.000;5.874;2023-06-22T02:13:04;16.05;;;15.25;;
11531;SDS011;5822;51.000;5.874;2023-06-22T02:15:32;15.70;;;14.90;;
11531;SDS011;5822;51.000;5.874;2023-06-22T02:17:59;15.60;;;14.80;;
11531;SDS011;5822;51.000;5.874;2023-06-22T02:20:25;15.87;;;15.07;;
11531;SDS011;5822;51.000;5.874;2023-06-22T02:22:51;16.20;;;15.40;;
11531;SDS011;5822;51.000;5.874;2023-06-22T02:25:16;15.70;;;14.90;;
11531;SDS011;5822;51.000;5.874;2023-06-22T02:27:42;15.90;;;15.10;;
11531;SDS011;5822;51.000;5.874;2023-06-22T02:30:08;16.00;;;15.20;;
11531;SDS011;5822;51.000;5.874;2023-06-22T02:32:34;16.20;;;15.40;;
11531;SDS011;5822;51.000;5.874;2023-06-22T02:35:00;16.10;;;15.30;;
11531;SDS011;5822;51.000;5.874;2023-06-22T02:37:29;16.45;;;15.55;;
11531;SDS011;5822;51.000;5.874;2023-06-22T02:39:55;15.93;;;15.13;;
11531;SDS011;5822;51.000;5.874;2023-06-22T02:42:21;16.27;;;15.47;;
11531;SDS011;5822;51.000;5.874;2023-06-22T02:44:47;16.45;;;15.60;;
11531;SDS011;5822;51.000;5.874;2023-06-22T02:47:13;16.70;;;15.80;;
11531;SDS011;5822;51.000;5.874;2023-06-22T02:49:38;16.40;;;15.60;;
11531;SDS011;5822;51.000;5.874;2023-06-22T02:52:04;16.30;;;15.50;;
11531;SDS011;5822;51.000;5.874;2023-06-22T02:54:30;16.30;;;15.50;;
11531;SDS011;5822;51.000;5.874;2023-06-22T02:56:55;16.70;;;15.80;;
11531;SDS011;5822;51.000;5.874;2023-06-22T02:59:21;17.42;;;16.52;;
11531;SDS011;5822;51.000;5.874;2023-06-22T03:01:50;17.35;;;16.45;;
11531;SDS011;5822;51.000;5.874;2023-06-22T03:04:15;18.30;;;17.30;;
11531;SDS011;5822;51.000;5.874;2023-06-22T03:06:41;17.23;;;16.33;;
11531;SDS011;5822;51.000;5.874;2023-06-22T03:09:07;17.33;;;16.42;;
11531;SDS011;5822;51.000;5.874;2023-06-22T03:11:33;16.95;;;16.05;;
11531;SDS011;5822;51.000;5.874;2023-06-22T03:13:59;16.52;;;15.73;;
11531;SDS011;5822;51.000;5.874;2023-06-22T03:16:26;16.73;;;15.93;;
11531;SDS011;5822;51.000;5.874;2023-06-22T03:18:51;16.90;;;16.00;;
11531;SDS011;5822;51.000;5.874;2023-06-22T03:21:22;17.50;;;16.60;;
11531;SDS011;5822;51.000;5.874;2023-06-22T03:23:48;17.88;;;16.90;;
11531;SDS011;5822;51.000;5.874;2023-06-22T03:26:16;17.17;;;16.27;;
11531;SDS011;5822;51.000;5.874;2023-06-22T03:28:42;17.15;;;16.25;;
11531;SDS011;5822;51.000;5.874;2023-06-22T03:31:08;17.23;;;16.33;;
11531;SDS011;5822;51.000;5.874;2023-06-22T03:33:33;17.20;;;16.30;;
11531;SDS011;5822;51.000;5.874;2023-06-22T03:35:59;17.75;;;16.75;;
11531;SDS011;5822;51.000;5.874;2023-06-22T03:38:25;18.42;;;17.42;;
11531;SDS011;5822;51.000;5.874;2023-06-22T03:40:51;17.57;;;16.67;;
11531;SDS011;5822;51.000;5.874;2023-06-22T03:43:16;17.30;;;16.40;;
11531;SDS011;5822;51.000;5.874;2023-06-22T03:45:42;17.33;;;16.43;;
11531;SDS011;5822;51.000;5.874;2023-06-22T03:48:10;17.33;;;16.42;;
11531;SDS011;5822;51.000;5.874;2023-06-22T03:50:36;17.50;;;16.50;;
11531;SDS011;5822;51.000;5.874;2023-06-22T03:53:02;17.20;;;16.30;;
11531;SDS011;5822;51.000;5.874;2023-06-22T03:55:28;17.90;;;16.90;;
11531;SDS011;5822;51.000;5.874;2023-06-22T03:57:53;18.00;;;17.00;;
11531;SDS011;5822;51.000;5.874;2023-06-22T04:00:22;18.05;;;17.05;;
11531;SDS011;5822;51.000;5.874;2023-06-22T04:02:48;17.70;;;16.70;;
11531;SDS011;5822;51.000;5.874;2023-06-22T04:05:14;17.70;;;16.80;;
11531;SDS011;5822;51.000;5.874;2023-06-22T04:07:39;17.30;;;16.40;;
11531;SDS011;5822;51.000;5.874;2023-06-22T04:10:05;16.73;;;15.83;;
11531;SDS011;5822;51.000;5.874;2023-06-22T04:12:31;16.85;;;15.95;;
11531;SDS011;5822;51.000;5.874;2023-06-22T04:14:57;16.60;;;15.70;;
11531;SDS011;5822;51.000;5.874;2023-06-22T04:17:23;17.00;;;16.10;;
11531;SDS011;5822;51.000;5.874;2023-06-22T04:19:50;16.85;;;15.95;;
11531;SDS011;5822;51.000;5.874;2023-06-22T04:22:16;16.95;;;16.05;;
11531;SDS011;5822;51.000;5.874;2023-06-22T04:24:41;16.87;;;15.97;;
11531;SDS011;5822;51.000;5.874;2023-06-22T04:27:07;16.55;;;15.65;;
11531;SDS011;5822;51.000;5.874;2023-06-22T04:29:33;16.50;;;15.60;;
11531;SDS011;5822;51.000;5.874;2023-06-22T04:31:58;16.80;;;15.90;;
11531;SDS011;5822;51.000;5.874;2023-06-22T04:34:28;17.17;;;16.27;;
11531;SDS011;5822;51.000;5.874;2023-06-22T04:36:54;17.57;;;16.67;;
11531;SDS011;5822;51.000;5.874;2023-06-22T04:39:20;17.70;;;16.70;;
11531;SDS011;5822;51.000;5.874;2023-06-22T04:41:46;19.97;;;18.83;;
11531;SDS011;5822;51.000;5.874;2023-06-22T04:44:12;20.73;;;19.52;;
11531;SDS011;5822;51.000;5.874;2023-06-22T04:46:57;18.75;;;17.73;;
11531;SDS011;5822;51.000;5.874;2023-06-22T04:49:28;18.13;;;17.13;;
11531;SDS011;5822;51.000;5.874;2023-06-22T04:52:08;17.20;;;16.30;;
11531;SDS011;5822;51.000;5.874;2023-06-22T04:54:35;17.13;;;16.23;;
11531;SDS011;5822;51.000;5.874;2023-06-22T04:57:02;17.25;;;16.35;;
11531;SDS011;5822;51.000;5.874;2023-06-22T04:59:29;17.33;;;16.42;;
11531;SDS011;5822;51.000;5.874;2023-06-22T05:01:56;16.90;;;16.00;;
11531;SDS011;5822;51.000;5.874;2023-06-22T05:04:23;17.55;;;16.65;;
11531;SDS011;5822;51.000;5.874;2023-06-22T05:06:50;18.00;;;17.00;;
11531;SDS011;5822;51.000;5.874;2023-06-22T05:09:19;18.02;;;17.02;;
11531;SDS011;5822;51.000;5.874;2023-06-22T05:11:45;18.17;;;17.17;;
11531;SDS011;5822;51.000;5.874;2023-06-22T05:14:11;17.63;;;16.63;;
11531;SDS011;5822;51.000;5.874;2023-06-22T05:16:37;17.80;;;16.80;;
11531;SDS011;5822;51.000;5.874;2023-06-22T05:19:03;17.45;;;16.45;;
11531;SDS011;5822;51.000;5.874;2023-06-22T05:21:29;17.95;;;16.95;;
11531;SDS011;5822;51.000;5.874;2023-06-22T05:23:56;17.40;;;16.50;;
11531;SDS011;5822;51.000;5.874;2023-06-22T05:26:25;17.90;;;16.90;;
11531;SDS011;5822;51.000;5.874;2023-06-22T05:28:51;18.00;;;17.00;;
11531;SDS011;5822;51.000;5.874;2023-06-22T05:31:18;17.40;;;16.40;;
11531;SDS011;5822;51.000;5.874;2023-06-22T05:33:46;18.02;;;17.02;;
11531;SDS011;5822;51.000;5.874;2023-06-22T05:36:13;17.60;;;16.63;;
11531;SDS011;5822;51.000;5.874;2023-06-22T05:38:39;17.33;;;16.42;;
11531;SDS011;5822;51.000;5.874;2023-06-22T05:41:06;17.65;;;16.75;;
11531;SDS011;5822;51.000;5.874;2023-06-22T05:43:32;18.17;;;17.17;;
11531;SDS011;5822;51.000;5.874;2023-06-22T05:45:59;18.00;;;17.00;;
11531;SDS011;5822;51.000;5.874;2023-06-22T05:48:26;17.92;;;16.92;;
11531;SDS011;5822;51.000;5.874;2023-06-22T05:50:52;17.47;;;16.57;;
11531;SDS011;5822;51.000;5.874;2023-06-22T05:53:18;18.30;;;17.30;;
11531;SDS011;5822;51.000;5.874;2023-06-22T05:55:43;18.40;;;17.40;;
11531;SDS011;5822;51.000;5.874;2023-06-22T05:58:09;17.85;;;16.85;;
11531;SDS011;5822;51.000;5.874;2023-06-22T06:00:35;17.50;;;16.60;;
11531;SDS011;5822;51.000;5.874;2023-06-22T06:03:01;17.45;;;16.55;;
11531;SDS011;5822;51.000;5.874;2023-06-22T06:05:30;17.98;;;17.00;;
11531;SDS011;5822;51.000;5.874;2023-06-22T06:07:56;17.65;;;16.75;;
11531;SDS011;5822;51.000;5.874;2023-06-22T06:10:22;17.55;;;16.58;;
11531;SDS011;5822;51.000;5.874;2023-06-22T06:12:47;18.25;;;17.25;;
11531;SDS011;5822;51.000;5.874;2023-06-22T06:15:13;18.77;;;17.77;;
11531;SDS011;5822;51.000;5.874;2023-06-22T06:17:45;18.90;;;17.90;;
11531;SDS011;5822;51.000;5.874;2023-06-22T06:20:15;18.43;;;17.43;;
11531;SDS011;5822;51.000;5.874;2023-06-22T06:22:43;18.15;;;17.25;;
11531;SDS011;5822;51.000;5.874;2023-06-22T06:25:08;18.00;;;17.10;;
11531;SDS011;5822;51.000;5.874;2023-06-22T06:27:34;17.67;;;16.67;;
11531;SDS011;5822;51.000;5.874;2023-06-22T06:30:00;17.65;;;16.75;;
11531;SDS011;5822;51.000;5.874;2023-06-22T06:32:26;18.02;;;17.13;;
11531;SDS011;5822;51.000;5.874;2023-06-22T06:34:52;18.13;;;17.13;;
11531;SDS011;5822;51.000;5.874;2023-06-22T06:37:18;17.70;;;16.80;;
11531;SDS011;5822;51.000;5.874;2023-06-22T06:39:43;17.63;;;16.73;;
11531;SDS011;5822;51.000;5.874;2023-06-22T06:42:09;17.60;;;16.70;;
11531;SDS011;5822;51.000;5.874;2023-06-22T06:44:36;18.20;;;17.23;;
11531;SDS011;5822;51.000;5.874;2023-06-22T06:47:03;17.90;;;16.95;;
11531;SDS011;5822;51.000;5.874;2023-06-22T06:49:29;17.37;;;16.47;;
11531;SDS011;5822;51.000;5.874;2023-06-22T06:51:55;17.70;;;16.80;;
11531;SDS011;5822;51.000;5.874;2023-06-22T06:54:21;17.83;;;16.88;;
11531;SDS011;5822;51.000;5.874;2023-06-22T06:56:47;17.70;;;16.80;;
11531;SDS011;5822;51.000;5.874;2023-06-22T06:59:13;21.10;;;19.90;;
11531;SDS011;5822;51.000;5.874;2023-06-22T07:01:40;19.13;;;18.13;;
11531;SDS011;5822;51.000;5.874;2023-06-22T07:04:06;17.80;;;16.90;;
11531;SDS011;5822;51.000;5.874;2023-06-22T07:06:32;18.93;;;17.93;;
11531;SDS011;5822;51.000;5.874;2023-06-22T07:08:58;18.55;;;17.65;;
11531;SDS011;5822;51.000;5.874;2023-06-22T07:11:24;19.88;;;18.88;;
11531;SDS011;5822;51.000;5.874;2023-06-22T07:13:50;20.55;;;19.55;;
11531;SDS011;5822;51.000;5.874;2023-06-22T07:16:16;20.40;;;19.40;;
11531;SDS011;5822;51.000;5.874;2023-06-22T07:18:41;20.33;;;19.33;;
11531;SDS011;5822;51.000;5.874;2023-06-22T07:21:07;19.60;;;18.63;;
11531;SDS011;5822;51.000;5.874;2023-06-22T07:23:33;19.70;;;18.70;;
11531;SDS011;5822;51.000;5.874;2023-06-22T07:25:58;19.43;;;18.43;;
11531;SDS011;5822;51.000;5.874;2023-06-22T07:28:27;19.13;;;18.13;;
11531;SDS011;5822;51.000;5.874;2023-06-22T07:30:56;19.33;;;18.33;;
11531;SDS011;5822;51.000;5.874;2023-06-22T07:33:22;18.97;;;18.07;;
11531;SDS011;5822;51.000;5.874;2023-06-22T07:35:47;20.00;;;19.00;;
11531;SDS011;5822;51.000;5.874;2023-06-22T07:38:14;20.50;;;19.50;;
11531;SDS011;5822;51.000;5.874;2023-06-22T07:40:40;18.77;;;17.88;;
11531;SDS011;5822;51.000;5.874;2023-06-22T07:43:07;18.75;;;17.85;;
11531;SDS011;5822;51.000;5.874;2023-06-22T07:45:32;19.27;;;18.27;;
11531;SDS011;5822;51.000;5.874;2023-06-22T07:48:00;19.27;;;18.27;;
11531;SDS011;5822;51.000;5.874;2023-06-22T07:50:26;19.90;;;18.90;;
11531;SDS011;5822;51.000;5.874;2023-06-22T07:52:54;19.27;;;18.27;;
11531;SDS011;5822;51.000;5.874;2023-06-22T07:55:20;18.45;;;17.55;;
11531;SDS011;5822;51.000;5.874;2023-06-22T07:57:46;20.23;;;19.15;;
11531;SDS011;5822;51.000;5.874;2023-06-22T08:00:14;20.95;;;19.85;;
11531;SDS011;5822;51.000;5.874;2023-06-22T08:02:41;19.73;;;18.73;;
11531;SDS011;5822;51.000;5.874;2023-06-22T08:05:08;19.40;;;18.40;;
11531;SDS011;5822;51.000;5.874;2023-06-22T08:07:38;19.20;;;18.20;;
11531;SDS011;5822;51.000;5.874;2023-06-22T08:10:04;19.33;;;18.33;;
11531;SDS011;5822;51.000;5.874;2023-06-22T08:12:30;20.65;;;19.55;;
11531;SDS011;5822;51.000;5.874;2023-06-22T08:14:56;20.65;;;19.55;;
11531;SDS011;5822;51.000;5.874;2023-06-22T08:17:23;18.85;;;17.85;;
11531;SDS011;5822;51.000;5.874;2023-06-22T08:19:49;18.98;;;18.08;;
11531;SDS011;5822;51.000;5.874;2023-06-22T08:22:15;19.05;;;18.05;;
11531;SDS011;5822;51.000;5.874;2023-06-22T08:24:41;19.35;;;18.35;;
11531;SDS011;5822;51.000;5.874;2023-06-22T08:27:07;19.53;;;18.53;;
11531;SDS011;5822;51.000;5.874;2023-06-22T08:29:40;18.90;;;18.00;;
11531;SDS011;5822;51.000;5.874;2023-06-22T08:32:10;19.20;;;18.20;;
11531;SDS011;5822;51.000;5.874;2023-06-22T08:34:36;20.10;;;19.02;;
11531;SDS011;5822;51.000;5.874;2023-06-22T08:37:02;20.17;;;19.17;;
11531;SDS011;5822;51.000;5.874;2023-06-22T08:39:31;20.50;;;19.40;;
11531;SDS011;5822;51.000;5.874;2023-06-22T08:41:57;21.33;;;20.23;;
11531;SDS011;5822;51.000;5.874;2023-06-22T08:44:22;20.60;;;19.50;;
11531;SDS011;5822;51.000;5.874;2023-06-22T08:46:48;20.90;;;19.80;;
11531;SDS011;5822;51.000;5.874;2023-06-22T08:49:15;20.90;;;19.80;;
11531;SDS011;5822;51.000;5.874;2023-06-22T08:51:41;20.98;;;19.88;;
11531;SDS011;5822;51.000;5.874;2023-06-22T08:54:07;20.23;;;19.23;;
11531;SDS011;5822;51.000;5.874;2023-06-22T08:56:32;19.02;;;18.10;;
11531;SDS011;5822;51.000;5.874;2023-06-22T08:58:58;19.03;;;18.03;;
11531;SDS011;5822;51.000;5.874;2023-06-22T09:01:25;20.77;;;19.67;;
11531;SDS011;5822;51.000;5.874;2023-06-22T09:03:51;19.90;;;18.90;;
11531;SDS011;5822;51.000;5.874;2023-06-22T09:06:20;20.30;;;19.20;;
11531;SDS011;5822;51.000;5.874;2023-06-22T09:08:46;20.60;;;19.50;;
11531;SDS011;5822;51.000;5.874;2023-06-22T09:11:12;19.40;;;18.40;;
11531;SDS011;5822;51.000;5.874;2023-06-22T09:13:38;19.20;;;18.20;;
11531;SDS011;5822;51.000;5.874;2023-06-22T09:16:05;19.70;;;18.70;;
11531;SDS011;5822;51.000;5.874;2023-06-22T09:18:31;20.00;;;19.00;;
11531;SDS011;5822;51.000;5.874;2023-06-22T09:20:57;20.40;;;19.30;;
11531;SDS011;5822;51.000;5.874;2023-06-22T09:23:23;20.50;;;19.33;;
11531;SDS011;5822;51.000;5.874;2023-06-22T09:25:48;20.30;;;19.27;;
11531;SDS011;5822;51.000;5.874;2023-06-22T09:28:14;19.17;;;18.17;;
11531;SDS011;5822;51.000;5.874;2023-06-22T09:30:40;17.92;;;17.02;;
11531;SDS011;5822;51.000;5.874;2023-06-22T09:33:05;16.20;;;15.40;;
11531;SDS011;5822;51.000;5.874;2023-06-22T09:35:31;17.90;;;17.00;;
11531;SDS011;5822;51.000;5.874;2023-06-22T09:37:57;17.90;;;17.00;;
11531;SDS011;5822;51.000;5.874;2023-06-22T09:40:22;18.85;;;17.85;;
11531;SDS011;5822;51.000;5.874;2023-06-22T09:42:48;19.27;;;18.27;;
11531;SDS011;5822;51.000;5.874;2023-06-22T09:45:14;19.63;;;18.55;;
11531;SDS011;5822;51.000;5.874;2023-06-22T09:47:39;17.73;;;16.83;;
11531;SDS011;5822;51.000;5.874;2023-06-22T09:50:05;16.95;;;16.15;;
11531;SDS011;5822;51.000;5.874;2023-06-22T09:52:31;17.15;;;16.30;;
11531;SDS011;5822;51.000;5.874;2023-06-22T09:54:57;18.52;;;17.52;;
11531;SDS011;5822;51.000;5.874;2023-06-22T09:57:23;18.90;;;17.90;;
11531;SDS011;5822;51.000;5.874;2023-06-22T09:59:48;17.50;;;16.60;;
11531;SDS011;5822;51.000;5.874;2023-06-22T10:02:14;19.00;;;18.00;;
11531;SDS011;5822;51.000;5.874;2023-06-22T10:04:40;19.50;;;18.50;;
11531;SDS011;5822;51.000;5.874;2023-06-22T10:07:05;18.73;;;17.73;;
11531;SDS011;5822;51.000;5.874;2023-06-22T10:09:31;19.15;;;18.15;;
11531;SDS011;5822;51.000;5.874;2023-06-22T10:11:57;19.17;;;18.17;;
11531;SDS011;5822;51.000;5.874;2023-06-22T10:14:22;19.40;;;18.40;;
11531;SDS011;5822;51.000;5.874;2023-06-22T10:16:50;20.40;;;19.35;;
11531;SDS011;5822;51.000;5.874;2023-06-22T10:19:17;19.02;;;18.02;;
11531;SDS011;5822;51.000;5.874;2023-06-22T10:21:43;19.40;;;18.40;;
11531;SDS011;5822;51.000;5.874;2023-06-22T10:24:08;19.50;;;18.50;;
11531;SDS011;5822;51.000;5.874;2023-06-22T10:26:34;20.23;;;19.15;;
11531;SDS011;5822;51.000;5.874;2023-06-22T10:29:01;21.55;;;20.45;;
11531;SDS011;5822;51.000;5.874;2023-06-22T10:31:28;21.55;;;20.45;;
11531;SDS011;5822;51.000;5.874;2023-06-22T10:33:54;21.30;;;20.20;;
11531;SDS011;5822;51.000;5.874;2023-06-22T10:36:20;20.85;;;19.75;;
11531;SDS011;5822;51.000;5.874;2023-06-22T10:38:47;20.65;;;19.55;;
11531;SDS011;5822;51.000;5.874;2023-06-22T10:41:13;20.47;;;19.37;;
11531;SDS011;5822;51.000;5.874;2023-06-22T10:43:39;21.08;;;19.98;;
11531;SDS011;5822;51.000;5.874;2023-06-22T10:46:04;20.77;;;19.67;;
11531;SDS011;5822;51.000;5.874;2023-06-22T10:48:31;20.98;;;19.88;;
11531;SDS011;5822;51.000;5.874;2023-06-22T10:50:57;21.10;;;20.00;;
11531;SDS011;5822;51.000;5.874;2023-06-22T10:53:23;23.23;;;21.92;;
11531;SDS011;5822;51.000;5.874;2023-06-22T10:55:48;24.60;;;23.20;;
11531;SDS011;5822;51.000;5.874;2023-06-22T10:58:14;24.90;;;23.50;;
11531;SDS011;5822;51.000;5.874;2023-06-22T11:00:40;24.00;;;22.70;;
11531;SDS011;5822;51.000;5.874;2023-06-22T11:03:06;26.13;;;24.63;;
11531;SDS011;5822;51.000;5.874;2023-06-22T11:05:31;25.00;;;23.60;;
11531;SDS011;5822;51.000;5.874;2023-06-22T11:07:57;24.55;;;23.20;;
11531;SDS011;5822;51.000;5.874;2023-06-22T11:10:23;24.37;;;23.07;;
11531;SDS011;5822;51.000;5.874;2023-06-22T11:12:48;22.90;;;21.60;;
11531;SDS011;5822;51.000;5.874;2023-06-22T11:15:14;24.57;;;23.17;;
11531;SDS011;5822;51.000;5.874;2023-06-22T11:17:40;24.80;;;23.40;;
11531;SDS011;5822;51.000;5.874;2023-06-22T11:20:06;23.60;;;22.30;;
11531;SDS011;5822;51.000;5.874;2023-06-22T11:22:36;22.60;;;21.30;;
11531;SDS011;5822;51.000;5.874;2023-06-22T11:25:06;23.05;;;21.75;;
11531;SDS011;5822;51.000;5.874;2023-06-22T11:27:32;23.10;;;21.90;;
11531;SDS011;5822;51.000;5.874;2023-06-22T11:29:58;22.98;;;21.67;;
11531;SDS011;5822;51.000;5.874;2023-06-22T11:32:23;23.33;;;22.02;;
11531;SDS011;5822;51.000;5.874;2023-06-22T11:34:49;21.97;;;20.77;;
11531;SDS011;5822;51.000;5.874;2023-06-22T11:37:15;22.25;;;21.05;;
11531;SDS011;5822;51.000;5.874;2023-06-22T11:39:41;22.00;;;20.80;;
11531;SDS011;5822;51.000;5.874;2023-06-22T11:42:07;21.50;;;20.30;;
11531;SDS011;5822;51.000;5.874;2023-06-22T11:44:34;24.15;;;22.75;;
11531;SDS011;5822;51.000;5.874;2023-06-22T11:47:00;23.07;;;21.77;;
11531;SDS011;5822;51.000;5.874;2023-06-22T11:49:28;22.63;;;21.42;;
11531;SDS011;5822;51.000;5.874;2023-06-22T11:51:54;22.57;;;21.37;;
11531;SDS011;5822;51.000;5.874;2023-06-22T11:54:20;23.67;;;22.38;;
11531;SDS011;5822;51.000;5.874;2023-06-22T11:56:46;23.38;;;22.08;;
11531;SDS011;5822;51.000;5.874;2023-06-22T11:59:11;21.57;;;20.37;;
11531;SDS011;5822;51.000;5.874;2023-06-22T12:01:38;21.35;;;20.15;;
11531;SDS011;5822;51.000;5.874;2023-06-22T12:04:04;21.60;;;20.40;;
11531;SDS011;5822;51.000;5.874;2023-06-22T12:06:31;23.05;;;21.75;;
11531;SDS011;5822;51.000;5.874;2023-06-22T12:08:57;26.33;;;24.73;;
11531;SDS011;5822;51.000;5.874;2023-06-22T12:11:23;28.08;;;26.38;;
11531;SDS011;5822;51.000;5.874;2023-06-22T12:13:49;25.43;;;23.93;;
11531;SDS011;5822;51.000;5.874;2023-06-22T12:16:14;27.55;;;25.90;;
11531;SDS011;5822;51.000;5.874;2023-06-22T12:18:40;30.93;;;29.03;;
11531;SDS011;5822;51.000;5.874;2023-06-22T12:21:05;29.10;;;27.40;;
11531;SDS011;5822;51.000;5.874;2023-06-22T12:23:31;27.65;;;25.95;;
11531;SDS011;5822;51.000;5.874;2023-06-22T12:25:57;27.20;;;25.60;;
11531;SDS011;5822;51.000;5.874;2023-06-22T12:28:24;27.30;;;25.70;;
11531;SDS011;5822;51.000;5.874;2023-06-22T12:30:50;26.25;;;24.75;;
11531;SDS011;5822;51.000;5.874;2023-06-22T12:33:15;27.10;;;25.60;;
11531;SDS011;5822;51.000;5.874;2023-06-22T12:35:41;24.45;;;23.05;;
11531;SDS011;5822;51.000;5.874;2023-06-22T12:38:07;29.57;;;27.77;;
11531;SDS011;5822;51.000;5.874;2023-06-22T12:40:33;33.40;;;31.30;;
11531;SDS011;5822;51.000;5.874;2023-06-22T12:42:59;26.90;;;25.30;;
11531;SDS011;5822;51.000;5.874;2023-06-22T12:45:24;27.02;;;25.42;;
11531;SDS011;5822;51.000;5.874;2023-06-22T12:47:53;28.20;;;26.50;;
11531;SDS011;5822;51.000;5.874;2023-06-22T12:50:19;31.50;;;29.60;;
11531;SDS011;5822;51.000;5.874;2023-06-22T12:52:45;27.55;;;25.95;;
11531;SDS011;5822;51.000;5.874;2023-06-22T12:55:10;27.83;;;26.23;;
11531;SDS011;5822;51.000;5.874;2023-06-22T12:57:36;26.80;;;25.30;;
11531;SDS011;5822;51.000;5.874;2023-06-22T13:00:02;26.87;;;25.37;;
11531;SDS011;5822;51.000;5.874;2023-06-22T13:02:29;24.83;;;23.42;;
11531;SDS011;5822;51.000;5.874;2023-06-22T13:04:55;25.57;;;24.17;;
11531;SDS011;5822;51.000;5.874;2023-06-22T13:07:21;24.75;;;23.35;;
11531;SDS011;5822;51.000;5.874;2023-06-22T13:09:46;25.43;;;24.03;;
11531;SDS011;5822;51.000;5.874;2023-06-22T13:12:16;24.52;;;23.23;;
11531;SDS011;5822;51.000;5.874;2023-06-22T13:14:42;28.30;;;26.70;;
11531;SDS011;5822;51.000;5.874;2023-06-22T13:17:08;25.92;;;24.42;;
11531;SDS011;5822;51.000;5.874;2023-06-22T13:19:34;25.53;;;24.03;;
11531;SDS011;5822;51.000;5.874;2023-06-22T13:21:59;26.08;;;24.55;;
11531;SDS011;5822;51.000;5.874;2023-06-22T13:24:25;29.60;;;27.90;;
11531;SDS011;5822;51.000;5.874;2023-06-22T13:26:51;27.30;;;25.70;;
11531;SDS011;5822;51.000;5.874;2023-06-22T13:29:17;24.00;;;22.60;;
11531;SDS011;5822;51.000;5.874;2023-06-22T13:31:42;23.10;;;21.80;;
11531;SDS011;5822;51.000;5.874;2023-06-22T13:34:08;23.13;;;21.83;;
11531;SDS011;5822;51.000;5.874;2023-06-22T13:36:33;23.63;;;22.33;;
11531;SDS011;5822;51.000;5.874;2023-06-22T13:38:59;23.70;;;22.40;;
11531;SDS011;5822;51.000;5.874;2023-06-22T13:41:25;21.98;;;20.77;;
11531;SDS011;5822;51.000;5.874;2023-06-22T13:43:50;24.13;;;22.83;;
11531;SDS011;5822;51.000;5.874;2023-06-22T13:46:16;24.33;;;22.93;;
11531;SDS011;5822;51.000;5.874;2023-06-22T13:48:42;24.52;;;23.13;;
11531;SDS011;5822;51.000;5.874;2023-06-22T13:51:07;25.30;;;23.90;;
11531;SDS011;5822;51.000;5.874;2023-06-22T13:53:33;26.77;;;25.23;;
11531;SDS011;5822;51.000;5.874;2023-06-22T13:55:59;24.73;;;23.33;;
11531;SDS011;5822;51.000;5.874;2023-06-22T13:58:25;24.67;;;23.27;;
11531;SDS011;5822;51.000;5.874;2023-06-22T14:00:50;27.17;;;25.57;;
11531;SDS011;5822;51.000;5.874;2023-06-22T14:03:16;26.30;;;24.80;;
11531;SDS011;5822;51.000;5.874;2023-06-22T14:05:42;26.73;;;25.13;;
11531;SDS011;5822;51.000;5.874;2023-06-22T14:08:08;25.27;;;23.85;;
11531;SDS011;5822;51.000;5.874;2023-06-22T14:10:34;23.92;;;22.60;;
11531;SDS011;5822;51.000;5.874;2023-06-22T14:13:00;28.03;;;26.33;;
11531;SDS011;5822;51.000;5.874;2023-06-22T14:15:25;29.70;;;27.90;;
11531;SDS011;5822;51.000;5.874;2023-06-22T14:17:51;33.80;;;31.70;;
11531;SDS011;5822;51.000;5.874;2023-06-22T14:20:17;32.78;;;30.77;;
11531;SDS011;5822;51.000;5.874;2023-06-22T14:22:43;32.97;;;30.98;;
11531;SDS011;5822;51.000;5.874;2023-06-22T14:25:08;36.20;;;33.88;;
11531;SDS011;5822;51.000;5.874;2023-06-22T14:27:34;32.27;;;30.27;;
11531;SDS011;5822;51.000;5.874;2023-06-22T14:30:00;32.10;;;30.08;;
11531;SDS011;5822;51.000;5.874;2023-06-22T14:32:27;31.07;;;29.10;;
11531;SDS011;5822;51.000;5.874;2023-06-22T14:34:54;34.50;;;32.40;;
11531;SDS011;5822;51.000;5.874;2023-06-22T14:37:20;32.88;;;30.88;;